sensor_id;sensor_type;location;lat;lon;timestamp;P1;durP1;ratioP1;P2;durP2;ratioP2
1651;SDS011;823;49.028;8.454;2022-07-29T00:04:30;4.07;;;3.43;;
1651;SDS011;823;49.028;8.454;2022-07-29T00:09:31;5.70;;;3.33;;
1651;SDS011;823;49.028;8.454;2022-07-29T00:14:32;4.80;;;2.87;;
1651;SDS011;823;49.028;8.454;2022-07-29T00:19:32;3.85;;;2.90;;
1651;SDS011;823;49.028;8.454;2022-07-29T00:24:34;7.07;;;3.10;;
1651;SDS011;823;49.028;8.454;2022-07-29T00:29:34;5.60;;;3.72;;
1651;SDS011;823;49.028;8.454;2022-07-29T00:34:34;4.47;;;3.00;;
1651;SDS011;823;49.028;8.454;2022-07-29T00:39:53;4.27;;;3.53;;
1651;SDS011;823;49.028;8.454;2022-07-29T00:44:53;5.67;;;3.70;;
1651;SDS011;823;49.028;8.454;2022-07-29T00:49:54;6.03;;;3.80;;
1651;SDS011;823;49.028;8.454;2022-07-29T00:54:54;4.88;;;3.38;;
1651;SDS011;823;49.028;8.454;2022-07-29T00:59:54;7.27;;;3.60;;
1651;SDS011;823;49.028;8.454;2022-07-29T01:04:55;6.53;;;3.77;;
1651;SDS011;823;49.028;8.454;2022-07-29T01:09:57;5.57;;;3.33;;
1651;SDS011;823;49.028;8.454;2022-07-29T01:14:58;3.75;;;3.05;;
1651;SDS011;823;49.028;8.454;2022-07-29T01:20:03;4.50;;;3.47;;
1651;SDS011;823;49.028;8.454;2022-07-29T01:30:27;5.67;;;3.23;;
1651;SDS011;823;49.028;8.454;2022-07-29T01:35:33;5.43;;;3.90;;
1651;SDS011;823;49.028;8.454;2022-07-29T01:45:55;10.00;;;4.90;;
1651;SDS011;823;49.028;8.454;2022-07-29T01:56:16;9.63;;;4.63;;
1651;SDS011;823;49.028;8.454;2022-07-29T02:01:19;5.73;;;4.43;;
1651;SDS011;823;49.028;8.454;2022-07-29T02:06:22;5.50;;;3.90;;
1651;SDS011;823;49.028;8.454;2022-07-29T02:11:25;8.00;;;4.10;;
1651;SDS011;823;49.028;8.454;2022-07-29T02:16:25;6.37;;;4.13;;
1651;SDS011;823;49.028;8.454;2022-07-29T02:21:28;6.47;;;4.47;;
1651;SDS011;823;49.028;8.454;2022-07-29T02:26:31;5.10;;;3.80;;
1651;SDS011;823;49.028;8.454;2022-07-29T02:31:33;4.90;;;3.10;;
1651;SDS011;823;49.028;8.454;2022-07-29T02:36:35;5.73;;;5.07;;
1651;SDS011;823;49.028;8.454;2022-07-29T02:41:50;4.40;;;3.53;;
1651;SDS011;823;49.028;8.454;2022-07-29T02:46:57;7.03;;;4.37;;
1651;SDS011;823;49.028;8.454;2022-07-29T02:52:02;8.63;;;3.47;;
1651;SDS011;823;49.028;8.454;2022-07-29T02:57:10;7.10;;;4.00;;
1651;SDS011;823;49.028;8.454;2022-07-29T03:02:18;8.93;;;4.13;;
1651;SDS011;823;49.028;8.454;2022-07-29T03:07:20;8.83;;;4.23;;
1651;SDS011;823;49.028;8.454;2022-07-29T03:12:22;9.03;;;4.70;;
1651;SDS011;823;49.028;8.454;2022-07-29T03:17:23;6.77;;;4.00;;
1651;SDS011;823;49.028;8.454;2022-07-29T03:22:24;6.37;;;4.30;;
1651;SDS011;823;49.028;8.454;2022-07-29T03:27:25;7.63;;;4.43;;
1651;SDS011;823;49.028;8.454;2022-07-29T03:32:25;5.37;;;4.30;;
1651;SDS011;823;49.028;8.454;2022-07-29T03:37:25;7.78;;;4.20;;
1651;SDS011;823;49.028;8.454;2022-07-29T03:42:27;6.47;;;4.07;;
1651;SDS011;823;49.028;8.454;2022-07-29T03:47:34;6.10;;;4.40;;
1651;SDS011;823;49.028;8.454;2022-07-29T03:52:37;8.30;;;4.70;;
1651;SDS011;823;49.028;8.454;2022-07-29T03:57:38;4.97;;;3.67;;
1651;SDS011;823;49.028;8.454;2022-07-29T04:02:40;7.20;;;4.70;;
1651;SDS011;823;49.028;8.454;2022-07-29T04:07:45;5.03;;;3.93;;
1651;SDS011;823;49.028;8.454;2022-07-29T04:12:46;7.33;;;4.10;;
1651;SDS011;823;49.028;8.454;2022-07-29T04:17:47;7.35;;;4.63;;
1651;SDS011;823;49.028;8.454;2022-07-29T04:22:47;10.55;;;4.97;;
1651;SDS011;823;49.028;8.454;2022-07-29T04:27:47;8.83;;;5.57;;
1651;SDS011;823;49.028;8.454;2022-07-29T04:33:00;10.10;;;4.10;;
1651;SDS011;823;49.028;8.454;2022-07-29T04:38:02;7.80;;;4.57;;
1651;SDS011;823;49.028;8.454;2022-07-29T04:43:04;9.20;;;5.17;;
1651;SDS011;823;49.028;8.454;2022-07-29T04:48:04;9.97;;;4.33;;
1651;SDS011;823;49.028;8.454;2022-07-29T04:53:05;7.27;;;5.17;;
1651;SDS011;823;49.028;8.454;2022-07-29T04:58:05;8.23;;;4.77;;
1651;SDS011;823;49.028;8.454;2022-07-29T05:03:06;5.73;;;4.50;;
1651;SDS011;823;49.028;8.454;2022-07-29T05:08:06;10.07;;;5.40;;
1651;SDS011;823;49.028;8.454;2022-07-29T05:13:07;8.77;;;5.20;;
1651;SDS011;823;49.028;8.454;2022-07-29T05:18:07;10.57;;;5.70;;
1651;SDS011;823;49.028;8.454;2022-07-29T05:23:08;9.23;;;4.97;;
1651;SDS011;823;49.028;8.454;2022-07-29T05:28:08;10.50;;;5.73;;
1651;SDS011;823;49.028;8.454;2022-07-29T05:33:09;8.27;;;5.60;;
1651;SDS011;823;49.028;8.454;2022-07-29T05:38:09;7.90;;;4.90;;
1651;SDS011;823;49.028;8.454;2022-07-29T05:43:10;9.95;;;4.72;;
1651;SDS011;823;49.028;8.454;2022-07-29T05:48:10;8.57;;;5.20;;
1651;SDS011;823;49.028;8.454;2022-07-29T05:53:10;10.30;;;5.30;;
1651;SDS011;823;49.028;8.454;2022-07-29T05:58:11;8.35;;;4.70;;
1651;SDS011;823;49.028;8.454;2022-07-29T06:03:11;13.73;;;5.72;;
1651;SDS011;823;49.028;8.454;2022-07-29T06:08:12;8.17;;;4.63;;
1651;SDS011;823;49.028;8.454;2022-07-29T06:13:12;8.70;;;5.87;;
1651;SDS011;823;49.028;8.454;2022-07-29T06:18:15;6.03;;;4.13;;
1651;SDS011;823;49.028;8.454;2022-07-29T06:23:16;6.95;;;4.28;;
1651;SDS011;823;49.028;8.454;2022-07-29T06:28:17;9.47;;;4.90;;
1651;SDS011;823;49.028;8.454;2022-07-29T06:33:17;9.02;;;4.28;;
1651;SDS011;823;49.028;8.454;2022-07-29T06:38:19;7.80;;;4.10;;
1651;SDS011;823;49.028;8.454;2022-07-29T06:43:19;7.53;;;4.43;;
1651;SDS011;823;49.028;8.454;2022-07-29T06:48:19;6.90;;;4.30;;
1651;SDS011;823;49.028;8.454;2022-07-29T06:53:20;6.60;;;4.68;;
1651;SDS011;823;49.028;8.454;2022-07-29T06:58:20;9.53;;;5.23;;
1651;SDS011;823;49.028;8.454;2022-07-29T07:03:20;5.95;;;4.00;;
1651;SDS011;823;49.028;8.454;2022-07-29T07:08:22;11.30;;;4.83;;
1651;SDS011;823;49.028;8.454;2022-07-29T07:13:23;7.47;;;5.00;;
1651;SDS011;823;49.028;8.454;2022-07-29T07:18:24;7.00;;;4.00;;
1651;SDS011;823;49.028;8.454;2022-07-29T07:23:24;6.40;;;4.50;;
1651;SDS011;823;49.028;8.454;2022-07-29T07:28:25;7.87;;;4.33;;
1651;SDS011;823;49.028;8.454;2022-07-29T07:33:25;10.53;;;4.57;;
1651;SDS011;823;49.028;8.454;2022-07-29T07:38:25;6.60;;;4.10;;
1651;SDS011;823;49.028;8.454;2022-07-29T07:43:25;11.73;;;4.50;;
1651;SDS011;823;49.028;8.454;2022-07-29T07:48:26;6.70;;;4.50;;
1651;SDS011;823;49.028;8.454;2022-07-29T07:53:26;6.57;;;3.70;;
1651;SDS011;823;49.028;8.454;2022-07-29T07:58:27;7.80;;;4.50;;
1651;SDS011;823;49.028;8.454;2022-07-29T08:03:27;8.20;;;3.43;;
1651;SDS011;823;49.028;8.454;2022-07-29T08:08:28;6.97;;;4.17;;
1651;SDS011;823;49.028;8.454;2022-07-29T08:13:28;13.63;;;4.07;;
1651;SDS011;823;49.028;8.454;2022-07-29T08:18:30;5.10;;;3.50;;
1651;SDS011;823;49.028;8.454;2022-07-29T08:23:31;5.40;;;3.80;;
1651;SDS011;823;49.028;8.454;2022-07-29T08:28:38;4.40;;;3.17;;
1651;SDS011;823;49.028;8.454;2022-07-29T08:33:45;6.27;;;3.93;;
1651;SDS011;823;49.028;8.454;2022-07-29T08:38:45;3.73;;;2.80;;
1651;SDS011;823;49.028;8.454;2022-07-29T08:43:47;4.63;;;3.03;;
1651;SDS011;823;49.028;8.454;2022-07-29T08:48:48;9.20;;;3.10;;
1651;SDS011;823;49.028;8.454;2022-07-29T08:53:49;2.67;;;2.47;;
1651;SDS011;823;49.028;8.454;2022-07-29T08:58:50;7.97;;;2.93;;
1651;SDS011;823;49.028;8.454;2022-07-29T09:03:50;8.20;;;3.07;;
1651;SDS011;823;49.028;8.454;2022-07-29T09:08:56;6.50;;;2.70;;
1651;SDS011;823;49.028;8.454;2022-07-29T09:13:59;8.87;;;3.20;;
1651;SDS011;823;49.028;8.454;2022-07-29T09:18:59;4.78;;;3.10;;
1651;SDS011;823;49.028;8.454;2022-07-29T09:24:07;2.80;;;2.25;;
1651;SDS011;823;49.028;8.454;2022-07-29T09:29:17;4.17;;;2.50;;
1651;SDS011;823;49.028;8.454;2022-07-29T09:34:26;5.13;;;2.67;;
1651;SDS011;823;49.028;8.454;2022-07-29T09:39:35;5.83;;;2.37;;
1651;SDS011;823;49.028;8.454;2022-07-29T09:44:46;3.77;;;2.10;;
1651;SDS011;823;49.028;8.454;2022-07-29T09:49:51;4.73;;;2.93;;
1651;SDS011;823;49.028;8.454;2022-07-29T09:54:52;10.10;;;2.53;;
1651;SDS011;823;49.028;8.454;2022-07-29T09:59:57;9.77;;;3.17;;
1651;SDS011;823;49.028;8.454;2022-07-29T10:05:25;4.47;;;2.20;;
1651;SDS011;823;49.028;8.454;2022-07-29T10:10:28;3.20;;;2.27;;
1651;SDS011;823;49.028;8.454;2022-07-29T10:15:31;7.10;;;2.80;;
1651;SDS011;823;49.028;8.454;2022-07-29T10:20:37;6.17;;;2.97;;
1651;SDS011;823;49.028;8.454;2022-07-29T10:25:38;3.30;;;2.23;;
1651;SDS011;823;49.028;8.454;2022-07-29T10:30:38;7.40;;;2.43;;
1651;SDS011;823;49.028;8.454;2022-07-29T10:41:01;9.60;;;3.00;;
1651;SDS011;823;49.028;8.454;2022-07-29T10:46:22;6.17;;;2.40;;
1651;SDS011;823;49.028;8.454;2022-07-29T10:51:23;3.80;;;2.40;;
1651;SDS011;823;49.028;8.454;2022-07-29T10:56:25;3.70;;;2.20;;
1651;SDS011;823;49.028;8.454;2022-07-29T11:01:28;3.60;;;2.33;;
1651;SDS011;823;49.028;8.454;2022-07-29T11:12:26;6.73;;;3.07;;
1651;SDS011;823;49.028;8.454;2022-07-29T11:22:52;5.17;;;3.00;;
1651;SDS011;823;49.028;8.454;2022-07-29T11:27:53;4.87;;;2.77;;
1651;SDS011;823;49.028;8.454;2022-07-29T11:33:07;3.57;;;2.90;;
1651;SDS011;823;49.028;8.454;2022-07-29T11:38:29;6.93;;;2.80;;
1651;SDS011;823;49.028;8.454;2022-07-29T11:43:48;5.68;;;2.50;;
1651;SDS011;823;49.028;8.454;2022-07-29T11:48:59;4.20;;;2.90;;
1651;SDS011;823;49.028;8.454;2022-07-29T11:54:00;3.13;;;2.50;;
1651;SDS011;823;49.028;8.454;2022-07-29T11:59:02;5.40;;;2.80;;
1651;SDS011;823;49.028;8.454;2022-07-29T12:04:04;5.30;;;3.10;;
1651;SDS011;823;49.028;8.454;2022-07-29T12:09:07;3.20;;;2.40;;
1651;SDS011;823;49.028;8.454;2022-07-29T12:14:08;3.83;;;3.00;;
1651;SDS011;823;49.028;8.454;2022-07-29T12:19:08;3.05;;;2.28;;
1651;SDS011;823;49.028;8.454;2022-07-29T12:24:08;5.15;;;2.55;;
1651;SDS011;823;49.028;8.454;2022-07-29T12:29:14;3.65;;;2.08;;
1651;SDS011;823;49.028;8.454;2022-07-29T12:34:16;2.63;;;2.43;;
1651;SDS011;823;49.028;8.454;2022-07-29T12:39:17;6.20;;;2.40;;
1651;SDS011;823;49.028;8.454;2022-07-29T12:44:18;2.67;;;2.47;;
1651;SDS011;823;49.028;8.454;2022-07-29T12:49:21;2.03;;;1.83;;
1651;SDS011;823;49.028;8.454;2022-07-29T12:54:22;2.57;;;1.97;;
1651;SDS011;823;49.028;8.454;2022-07-29T12:59:23;8.73;;;1.95;;
1651;SDS011;823;49.028;8.454;2022-07-29T13:04:24;7.28;;;3.00;;
1651;SDS011;823;49.028;8.454;2022-07-29T13:09:35;5.97;;;2.57;;
1651;SDS011;823;49.028;8.454;2022-07-29T13:14:44;4.73;;;1.73;;
1651;SDS011;823;49.028;8.454;2022-07-29T13:19:47;2.50;;;1.50;;
1651;SDS011;823;49.028;8.454;2022-07-29T13:24:53;2.07;;;1.70;;
1651;SDS011;823;49.028;8.454;2022-07-29T13:29:59;2.27;;;1.70;;
1651;SDS011;823;49.028;8.454;2022-07-29T13:35:01;6.20;;;1.80;;
1651;SDS011;823;49.028;8.454;2022-07-29T13:40:05;3.60;;;2.13;;
1651;SDS011;823;49.028;8.454;2022-07-29T13:45:07;3.60;;;1.63;;
1651;SDS011;823;49.028;8.454;2022-07-29T13:50:10;6.00;;;2.00;;
1651;SDS011;823;49.028;8.454;2022-07-29T13:55:11;6.60;;;1.83;;
1651;SDS011;823;49.028;8.454;2022-07-29T14:00:12;3.50;;;1.33;;
1651;SDS011;823;49.028;8.454;2022-07-29T14:05:13;2.60;;;1.80;;
1651;SDS011;823;49.028;8.454;2022-07-29T14:10:13;3.17;;;1.77;;
1651;SDS011;823;49.028;8.454;2022-07-29T14:15:14;4.00;;;2.07;;
1651;SDS011;823;49.028;8.454;2022-07-29T14:20:14;5.40;;;1.40;;
1651;SDS011;823;49.028;8.454;2022-07-29T14:25:15;2.30;;;1.53;;
1651;SDS011;823;49.028;8.454;2022-07-29T14:30:16;2.33;;;1.37;;
1651;SDS011;823;49.028;8.454;2022-07-29T14:35:16;3.83;;;1.77;;
1651;SDS011;823;49.028;8.454;2022-07-29T14:40:16;5.23;;;1.93;;
1651;SDS011;823;49.028;8.454;2022-07-29T14:45:16;2.45;;;1.40;;
1651;SDS011;823;49.028;8.454;2022-07-29T14:50:17;2.28;;;1.65;;
1651;SDS011;823;49.028;8.454;2022-07-29T14:55:18;5.70;;;1.70;;
1651;SDS011;823;49.028;8.454;2022-07-29T15:00:18;4.40;;;1.80;;
1651;SDS011;823;49.028;8.454;2022-07-29T15:05:19;4.30;;;1.47;;
1651;SDS011;823;49.028;8.454;2022-07-29T15:10:19;4.03;;;1.42;;
1651;SDS011;823;49.028;8.454;2022-07-29T15:15:19;3.70;;;1.30;;
1651;SDS011;823;49.028;8.454;2022-07-29T15:20:20;3.67;;;1.63;;
1651;SDS011;823;49.028;8.454;2022-07-29T15:25:24;5.40;;;1.67;;
1651;SDS011;823;49.028;8.454;2022-07-29T15:30:25;3.00;;;1.37;;
1651;SDS011;823;49.028;8.454;2022-07-29T15:35:26;3.30;;;1.23;;
1651;SDS011;823;49.028;8.454;2022-07-29T15:40:26;2.43;;;1.40;;
1651;SDS011;823;49.028;8.454;2022-07-29T15:45:27;3.30;;;1.40;;
1651;SDS011;823;49.028;8.454;2022-07-29T15:50:27;4.00;;;0.97;;
1651;SDS011;823;49.028;8.454;2022-07-29T15:55:28;3.83;;;1.47;;
1651;SDS011;823;49.028;8.454;2022-07-29T16:00:28;8.63;;;1.80;;
1651;SDS011;823;49.028;8.454;2022-07-29T16:05:28;6.13;;;1.40;;
1651;SDS011;823;49.028;8.454;2022-07-29T16:10:29;1.80;;;1.20;;
1651;SDS011;823;49.028;8.454;2022-07-29T16:15:29;2.40;;;1.40;;
1651;SDS011;823;49.028;8.454;2022-07-29T16:20:30;2.30;;;1.13;;
1651;SDS011;823;49.028;8.454;2022-07-29T16:25:30;2.70;;;1.40;;
1651;SDS011;823;49.028;8.454;2022-07-29T16:30:30;3.10;;;1.10;;
1651;SDS011;823;49.028;8.454;2022-07-29T16:35:31;8.73;;;1.57;;
1651;SDS011;823;49.028;8.454;2022-07-29T16:40:31;2.63;;;1.30;;
1651;SDS011;823;49.028;8.454;2022-07-29T16:45:32;4.17;;;1.57;;
1651;SDS011;823;49.028;8.454;2022-07-29T16:50:32;5.37;;;1.60;;
1651;SDS011;823;49.028;8.454;2022-07-29T16:55:33;4.43;;;2.20;;
1651;SDS011;823;49.028;8.454;2022-07-29T17:00:33;3.30;;;1.83;;
1651;SDS011;823;49.028;8.454;2022-07-29T17:05:33;1.80;;;1.30;;
1651;SDS011;823;49.028;8.454;2022-07-29T17:10:34;2.13;;;1.65;;
1651;SDS011;823;49.028;8.454;2022-07-29T17:15:34;3.88;;;1.80;;
1651;SDS011;823;49.028;8.454;2022-07-29T17:20:34;5.00;;;2.22;;
1651;SDS011;823;49.028;8.454;2022-07-29T17:25:35;15.67;;;4.40;;
1651;SDS011;823;49.028;8.454;2022-07-29T17:30:35;4.30;;;2.23;;
1651;SDS011;823;49.028;8.454;2022-07-29T17:35:36;1.87;;;1.37;;
1651;SDS011;823;49.028;8.454;2022-07-29T17:40:55;3.53;;;1.37;;
1651;SDS011;823;49.028;8.454;2022-07-29T17:45:55;1.70;;;1.30;;
1651;SDS011;823;49.028;8.454;2022-07-29T17:50:56;1.30;;;1.00;;
1651;SDS011;823;49.028;8.454;2022-07-29T17:55:56;1.30;;;1.10;;
1651;SDS011;823;49.028;8.454;2022-07-29T18:00:57;10.73;;;1.60;;
1651;SDS011;823;49.028;8.454;2022-07-29T18:05:58;5.57;;;1.17;;
1651;SDS011;823;49.028;8.454;2022-07-29T18:10:58;3.13;;;1.53;;
1651;SDS011;823;49.028;8.454;2022-07-29T18:15:59;3.30;;;1.40;;
1651;SDS011;823;49.028;8.454;2022-07-29T18:20:59;6.07;;;1.63;;
1651;SDS011;823;49.028;8.454;2022-07-29T18:26:00;1.90;;;1.70;;
1651;SDS011;823;49.028;8.454;2022-07-29T18:31:00;3.67;;;1.60;;
1651;SDS011;823;49.028;8.454;2022-07-29T18:36:01;5.97;;;1.83;;
1651;SDS011;823;49.028;8.454;2022-07-29T18:41:02;2.33;;;1.47;;
1651;SDS011;823;49.028;8.454;2022-07-29T18:46:03;2.60;;;1.73;;
1651;SDS011;823;49.028;8.454;2022-07-29T18:51:04;6.93;;;2.50;;
1651;SDS011;823;49.028;8.454;2022-07-29T18:56:05;3.40;;;2.60;;
1651;SDS011;823;49.028;8.454;2022-07-29T19:01:05;35.80;;;2.90;;
1651;SDS011;823;49.028;8.454;2022-07-29T19:06:05;2.70;;;1.95;;
1651;SDS011;823;49.028;8.454;2022-07-29T19:11:06;2.27;;;1.60;;
1651;SDS011;823;49.028;8.454;2022-07-29T19:16:06;7.13;;;2.00;;
1651;SDS011;823;49.028;8.454;2022-07-29T19:21:10;3.20;;;1.97;;
1651;SDS011;823;49.028;8.454;2022-07-29T19:26:11;2.20;;;2.00;;
1651;SDS011;823;49.028;8.454;2022-07-29T19:31:11;9.23;;;2.43;;
1651;SDS011;823;49.028;8.454;2022-07-29T19:36:11;4.70;;;1.80;;
1651;SDS011;823;49.028;8.454;2022-07-29T19:41:12;3.85;;;1.42;;
1651;SDS011;823;49.028;8.454;2022-07-29T19:46:12;2.47;;;1.73;;
1651;SDS011;823;49.028;8.454;2022-07-29T19:51:13;2.10;;;1.90;;
1651;SDS011;823;49.028;8.454;2022-07-29T19:56:14;3.03;;;1.60;;
1651;SDS011;823;49.028;8.454;2022-07-29T20:01:14;3.97;;;1.85;;
1651;SDS011;823;49.028;8.454;2022-07-29T20:06:15;2.10;;;1.60;;
1651;SDS011;823;49.028;8.454;2022-07-29T20:11:16;3.27;;;1.60;;
1651;SDS011;823;49.028;8.454;2022-07-29T20:16:17;4.47;;;1.90;;
1651;SDS011;823;49.028;8.454;2022-07-29T20:21:17;4.60;;;2.17;;
1651;SDS011;823;49.028;8.454;2022-07-29T20:26:18;2.33;;;1.90;;
1651;SDS011;823;49.028;8.454;2022-07-29T20:31:18;2.17;;;1.83;;
1651;SDS011;823;49.028;8.454;2022-07-29T20:36:19;2.30;;;1.80;;
1651;SDS011;823;49.028;8.454;2022-07-29T20:41:19;5.90;;;2.10;;
1651;SDS011;823;49.028;8.454;2022-07-29T20:46:20;3.77;;;2.03;;
1651;SDS011;823;49.028;8.454;2022-07-29T20:51:20;3.27;;;1.80;;
1651;SDS011;823;49.028;8.454;2022-07-29T20:56:21;2.80;;;1.70;;
1651;SDS011;823;49.028;8.454;2022-07-29T21:01:21;11.57;;;2.07;;
1651;SDS011;823;49.028;8.454;2022-07-29T21:06:22;8.03;;;1.70;;
1651;SDS011;823;49.028;8.454;2022-07-29T21:11:23;8.83;;;1.80;;
1651;SDS011;823;49.028;8.454;2022-07-29T21:16:23;3.77;;;1.87;;
1651;SDS011;823;49.028;8.454;2022-07-29T21:21:25;2.73;;;1.70;;
1651;SDS011;823;49.028;8.454;2022-07-29T21:26:25;6.20;;;1.90;;
1651;SDS011;823;49.028;8.454;2022-07-29T21:31:26;3.85;;;2.40;;
1651;SDS011;823;49.028;8.454;2022-07-29T21:36:27;5.43;;;3.17;;
1651;SDS011;823;49.028;8.454;2022-07-29T21:41:27;4.80;;;2.50;;
1651;SDS011;823;49.028;8.454;2022-07-29T21:46:27;3.23;;;2.37;;
1651;SDS011;823;49.028;8.454;2022-07-29T21:51:28;4.10;;;2.70;;
1651;SDS011;823;49.028;8.454;2022-07-29T21:56:29;6.27;;;2.97;;
1651;SDS011;823;49.028;8.454;2022-07-29T22:01:29;3.90;;;2.57;;
1651;SDS011;823;49.028;8.454;2022-07-29T22:06:29;3.88;;;2.30;;
1651;SDS011;823;49.028;8.454;2022-07-29T22:11:31;3.00;;;1.83;;
1651;SDS011;823;49.028;8.454;2022-07-29T22:16:32;4.27;;;2.23;;
1651;SDS011;823;49.028;8.454;2022-07-29T22:21:32;5.63;;;2.60;;
1651;SDS011;823;49.028;8.454;2022-07-29T22:26:32;4.27;;;1.97;;
1651;SDS011;823;49.028;8.454;2022-07-29T22:31:33;2.43;;;2.00;;
1651;SDS011;823;49.028;8.454;2022-07-29T22:36:33;2.97;;;2.20;;
1651;SDS011;823;49.028;8.454;2022-07-29T22:41:33;3.17;;;1.87;;
1651;SDS011;823;49.028;8.454;2022-07-29T22:46:34;2.50;;;1.60;;
1651;SDS011;823;49.028;8.454;2022-07-29T22:51:34;5.03;;;2.50;;
1651;SDS011;823;49.028;8.454;2022-07-29T22:56:35;3.90;;;2.10;;
1651;SDS011;823;49.028;8.454;2022-07-29T23:01:35;2.47;;;1.87;;
1651;SDS011;823;49.028;8.454;2022-07-29T23:06:36;2.50;;;1.70;;
1651;SDS011;823;49.028;8.454;2022-07-29T23:11:36;3.40;;;2.27;;
1651;SDS011;823;49.028;8.454;2022-07-29T23:16:36;4.53;;;2.27;;
1651;SDS011;823;49.028;8.454;2022-07-29T23:21:37;2.77;;;1.90;;
1651;SDS011;823;49.028;8.454;2022-07-29T23:26:37;5.50;;;2.30;;
1651;SDS011;823;49.028;8.454;2022-07-29T23:31:38;4.30;;;2.40;;
1651;SDS011;823;49.028;8.454;2022-07-29T23:36:38;2.53;;;2.10;;
1651;SDS011;823;49.028;8.454;2022-07-29T23:41:38;3.27;;;2.60;;
1651;SDS011;823;49.028;8.454;2022-07-29T23:46:39;3.30;;;2.50;;
1651;SDS011;823;49.028;8.454;2022-07-29T23:51:39;3.17;;;2.50;;
1651;SDS011;823;49.028;8.454;2022-07-29T23:56:40;4.10;;;2.77;;
